createdAt,value
2024-04-10T00:01:54.113Z,1.50
2024-04-10T00:04:22.704Z,1.40
2024-04-10T00:06:51.289Z,1.17
2024-04-10T00:09:19.881Z,1.33
2024-04-10T00:11:48.506Z,1.07
2024-04-10T00:14:18.317Z,1.53
2024-04-10T00:16:46.644Z,1.10
2024-04-10T00:19:16.845Z,1.30
2024-04-10T00:21:44.265Z,1.03
2024-04-10T00:24:12.892Z,1.17
2024-04-10T00:26:41.729Z,1.60
2024-04-10T00:29:09.041Z,1.53
2024-04-10T00:31:36.698Z,2.20
2024-04-10T00:34:05.955Z,1.40
2024-04-10T00:36:33.416Z,1.30
2024-04-10T00:39:03.176Z,1.30
2024-04-10T00:41:32.106Z,1.97
2024-04-10T00:44:00.907Z,1.57
2024-04-10T00:46:30.267Z,1.33
2024-04-10T00:48:59.337Z,1.20
2024-04-10T00:51:27.263Z,1.53
2024-04-10T00:53:56.017Z,1.43
2024-04-10T00:56:25.984Z,1.20
2024-04-10T00:58:57.126Z,1.10
2024-04-10T01:01:24.918Z,2.23
2024-04-10T01:03:53.581Z,1.10
2024-04-10T01:06:28.384Z,1.43
2024-04-10T01:08:55.849Z,1.70
2024-04-10T01:11:23.741Z,1.90
2024-04-10T01:13:52.597Z,2.17
2024-04-10T01:16:21.182Z,1.70
2024-04-10T01:18:50.128Z,1.33
2024-04-10T01:21:19.729Z,1.40
2024-04-10T01:23:48.215Z,1.30
2024-04-10T01:26:16.928Z,1.83
2024-04-10T01:28:45.889Z,1.60
2024-04-10T01:31:13.574Z,1.00
2024-04-10T01:33:41.533Z,1.57
2024-04-10T01:36:09.548Z,1.90
2024-04-10T01:38:37.357Z,1.57
2024-04-10T01:41:05.171Z,1.50
2024-04-10T01:43:32.969Z,1.50
2024-04-10T01:46:00.660Z,1.67
2024-04-10T01:48:28.459Z,1.27
2024-04-10T01:50:56.180Z,1.90
2024-04-10T01:53:23.996Z,1.27
2024-04-10T01:55:52.747Z,1.17
2024-04-10T01:58:20.523Z,1.40
2024-04-10T02:00:48.290Z,1.63
2024-04-10T02:03:16.004Z,1.90
2024-04-10T02:05:43.764Z,1.63
2024-04-10T02:08:11.616Z,1.37
2024-04-10T02:10:39.320Z,1.50
2024-04-10T02:13:07.057Z,1.60
2024-04-10T02:15:34.906Z,1.67
2024-04-10T02:18:02.780Z,1.40
2024-04-10T02:20:30.563Z,1.00
2024-04-10T02:22:58.281Z,1.60
2024-04-10T02:25:43.989Z,2.03
2024-04-10T02:28:11.811Z,1.30
2024-04-10T02:30:39.425Z,1.20
2024-04-10T02:33:07.306Z,1.37
2024-04-10T02:35:35.111Z,1.40
2024-04-10T02:38:03.240Z,1.30
2024-04-10T02:40:31.340Z,1.70
2024-04-10T02:42:59.096Z,1.40
2024-04-10T02:45:26.765Z,1.43
2024-04-10T02:47:54.619Z,1.50
2024-04-10T02:50:22.402Z,1.93
2024-04-10T02:52:50.294Z,1.50
2024-04-10T02:55:18.038Z,1.60
2024-04-10T02:57:45.765Z,1.70
2024-04-10T03:00:13.580Z,1.90
2024-04-10T03:02:41.519Z,1.20
2024-04-10T03:05:09.432Z,1.43
2024-04-10T03:07:37.221Z,1.30
2024-04-10T03:10:05.015Z,1.37
2024-04-10T03:12:33.143Z,1.33
2024-04-10T03:15:00.903Z,1.97
2024-04-10T03:17:28.954Z,1.13
2024-04-10T03:19:56.732Z,1.30
2024-04-10T03:22:24.470Z,1.67
2024-04-10T03:24:52.098Z,1.53
2024-04-10T03:27:19.861Z,1.27
2024-04-10T03:29:47.535Z,2.37
2024-04-10T03:32:15.403Z,1.40
2024-04-10T03:34:43.186Z,1.37
2024-04-10T03:37:10.936Z,1.50
2024-04-10T03:39:38.603Z,1.60
2024-04-10T03:42:06.433Z,1.60
2024-04-10T03:44:34.229Z,1.33
2024-04-10T03:47:02.253Z,1.37
2024-04-10T03:49:30.908Z,1.70
2024-04-10T03:51:58.594Z,1.40
2024-04-10T03:54:26.263Z,1.73
2024-04-10T03:56:53.961Z,1.57
2024-04-10T03:59:22.046Z,1.63
2024-04-10T04:01:49.989Z,1.53
2024-04-10T04:04:17.808Z,1.37
2024-04-10T04:06:45.645Z,2.00
2024-04-10T04:09:13.329Z,1.10
2024-04-10T04:11:41.312Z,1.50
2024-04-10T04:14:09.233Z,1.47
2024-04-10T04:16:37.075Z,1.30
2024-04-10T04:19:04.755Z,1.60
2024-04-10T04:21:32.505Z,1.73
2024-04-10T04:24:00.372Z,1.50
2024-04-10T04:26:28.171Z,1.80
2024-04-10T04:28:56.006Z,1.83
2024-04-10T04:31:23.713Z,1.63
2024-04-10T04:33:51.449Z,1.97
2024-04-10T04:36:19.294Z,1.33
2024-04-10T04:38:46.972Z,1.87
2024-04-10T04:41:14.756Z,1.23
2024-04-10T04:43:42.408Z,1.30
2024-04-10T04:46:10.248Z,2.10
2024-04-10T04:48:38.178Z,2.27
2024-04-10T04:51:06.064Z,1.73
2024-04-10T04:53:33.750Z,1.40
2024-04-10T04:56:01.598Z,1.57
2024-04-10T04:58:31.323Z,1.13
2024-04-10T05:01:00.223Z,1.80
2024-04-10T05:03:27.989Z,1.47
2024-04-10T05:05:55.814Z,1.67
2024-04-10T05:08:23.495Z,1.63
2024-04-10T05:10:51.347Z,1.40
2024-04-10T05:13:19.110Z,1.50
2024-04-10T05:15:46.948Z,1.40
2024-04-10T05:18:14.662Z,1.73
2024-04-10T05:20:42.632Z,1.83
2024-04-10T05:23:10.408Z,1.63
2024-04-10T05:25:38.136Z,2.13
2024-04-10T05:28:05.932Z,1.30
2024-04-10T05:30:33.697Z,1.43
2024-04-10T05:33:01.500Z,1.93
2024-04-10T05:35:29.409Z,1.53
2024-04-10T05:37:57.521Z,1.50
2024-04-10T05:40:25.220Z,1.50
2024-04-10T05:42:52.851Z,1.20
2024-04-10T05:45:20.703Z,1.63
2024-04-10T05:47:52.000Z,1.50
2024-04-10T05:50:20.176Z,1.70
2024-04-10T05:52:48.603Z,1.90
2024-04-10T05:55:16.612Z,1.50
2024-04-10T05:57:47.842Z,2.03
2024-04-10T06:00:15.718Z,2.00
2024-04-10T06:02:45.248Z,1.40
2024-04-10T06:05:13.196Z,1.40
2024-04-10T06:07:40.967Z,1.50
2024-04-10T06:10:08.708Z,1.93
2024-04-10T06:12:36.479Z,2.00
2024-04-10T06:15:04.381Z,1.73
2024-04-10T06:17:32.103Z,1.67
2024-04-10T06:20:00.429Z,1.33
2024-04-10T06:22:28.318Z,1.40
2024-04-10T06:24:56.021Z,1.60
2024-04-10T06:27:23.717Z,2.13
2024-04-10T06:29:51.439Z,1.50
2024-04-10T06:32:19.386Z,1.70
2024-04-10T06:34:47.249Z,1.47
2024-04-10T06:37:15.732Z,2.20
2024-04-10T06:39:43.714Z,2.17
2024-04-10T06:42:11.407Z,1.93
2024-04-10T06:44:39.223Z,1.57
2024-04-10T06:47:07.168Z,1.43
2024-04-10T06:49:36.488Z,2.00
2024-04-10T06:52:04.248Z,1.67
2024-04-10T06:54:32.045Z,1.70
2024-04-10T06:56:59.775Z,1.60
2024-04-10T06:59:27.573Z,1.53
2024-04-10T07:01:55.288Z,1.43
2024-04-10T07:04:23.145Z,1.30
2024-04-10T07:06:50.857Z,1.30
2024-04-10T07:09:18.545Z,1.70
2024-04-10T07:11:46.270Z,1.80
2024-04-10T07:14:14.225Z,1.50
2024-04-10T07:16:42.087Z,2.00
2024-04-10T07:19:09.868Z,1.67
2024-04-10T07:21:37.573Z,1.80
2024-04-10T07:24:05.495Z,2.00
2024-04-10T07:26:33.243Z,1.43
2024-04-10T07:29:01.155Z,2.10
2024-04-10T07:31:29.470Z,2.30
2024-04-10T07:33:57.349Z,1.83
2024-04-10T07:36:25.307Z,1.50
2024-04-10T07:38:56.689Z,1.90
2024-04-10T07:41:24.570Z,1.67
2024-04-10T07:43:52.740Z,1.73
2024-04-10T07:46:20.979Z,1.70
2024-04-10T07:48:53.908Z,1.60
2024-04-10T07:51:22.040Z,2.33
2024-04-10T07:53:49.985Z,2.17
2024-04-10T07:56:17.846Z,2.00
2024-04-10T07:58:45.555Z,1.70
2024-04-10T08:01:13.453Z,2.17
2024-04-10T08:03:41.252Z,2.30
2024-04-10T08:06:09.697Z,1.70
2024-04-10T08:08:37.398Z,2.50
2024-04-10T08:11:06.222Z,2.07
2024-04-10T08:13:34.100Z,1.60
2024-04-10T08:16:02.703Z,1.67
2024-04-10T08:18:30.953Z,2.00
2024-04-10T08:20:59.275Z,1.47
2024-04-10T08:23:27.459Z,1.57
2024-04-10T08:25:55.499Z,1.50
2024-04-10T08:28:23.285Z,1.43
2024-04-10T08:30:51.014Z,1.73
2024-04-10T08:33:18.829Z,1.57
2024-04-10T08:35:52.612Z,1.70
2024-04-10T08:38:20.327Z,1.87
2024-04-10T08:40:50.570Z,1.93
2024-04-10T08:43:20.015Z,1.60
2024-04-10T08:45:49.004Z,1.63
2024-04-10T08:48:20.076Z,1.70
2024-04-10T08:50:48.022Z,1.30
2024-04-10T08:53:15.669Z,1.33
2024-04-10T08:55:54.404Z,1.70
2024-04-10T08:58:28.021Z,2.00
2024-04-10T09:00:55.787Z,1.47
2024-04-10T09:03:24.218Z,1.67
2024-04-10T09:05:51.684Z,1.80
2024-04-10T09:08:19.109Z,1.33
2024-04-10T09:10:54.997Z,1.70
2024-04-10T09:13:23.902Z,1.93
2024-04-10T09:15:58.960Z,1.50
2024-04-10T09:18:28.896Z,1.20
2024-04-10T09:21:10.194Z,1.33
2024-04-10T09:23:39.544Z,1.63
2024-04-10T09:26:10.186Z,1.20
2024-04-10T09:28:37.497Z,1.20
2024-04-10T09:31:04.967Z,1.37
2024-04-10T09:33:36.215Z,1.40
2024-04-10T09:36:04.955Z,1.37
2024-04-10T09:38:35.565Z,1.60
2024-04-10T09:41:04.695Z,1.90
2024-04-10T09:43:32.752Z,1.60
2024-04-10T09:46:00.961Z,2.10
2024-04-10T09:48:31.131Z,1.53
2024-04-10T09:51:04.822Z,1.57
2024-04-10T09:53:36.321Z,1.60
2024-04-10T09:56:05.937Z,1.17
2024-04-10T09:58:35.489Z,1.53
2024-04-10T10:01:04.356Z,1.00
2024-04-10T10:03:32.825Z,1.10
2024-04-10T10:06:09.880Z,1.73
2024-04-10T10:08:48.196Z,1.40
2024-04-10T10:11:19.569Z,1.40
2024-04-10T10:13:58.096Z,1.30
2024-04-10T10:16:28.505Z,1.27
2024-04-10T10:18:59.102Z,1.13
2024-04-10T10:21:27.627Z,1.30
2024-04-10T10:24:06.491Z,1.20
2024-04-10T10:26:34.363Z,1.73
2024-04-10T10:29:09.064Z,1.30
2024-04-10T10:31:37.922Z,1.47
2024-04-10T10:34:07.110Z,1.43
2024-04-10T10:36:35.368Z,1.83
2024-04-10T10:39:06.325Z,1.60
2024-04-10T10:41:33.936Z,1.40
2024-04-10T10:44:02.199Z,1.30
2024-04-10T10:46:29.816Z,1.60
2024-04-10T10:48:57.215Z,1.27
2024-04-10T10:51:24.780Z,1.20
2024-04-10T10:53:52.895Z,1.20
2024-04-10T10:56:27.810Z,1.10
2024-04-10T10:58:55.634Z,1.10
2024-04-10T11:01:23.058Z,1.20
2024-04-10T11:03:50.714Z,1.40
2024-04-10T11:06:18.246Z,1.03
2024-04-10T11:08:45.864Z,1.00
2024-04-10T11:11:16.743Z,1.40
2024-04-10T11:13:48.794Z,1.10
2024-04-10T11:16:30.056Z,1.27
2024-04-10T11:18:57.567Z,1.10
2024-04-10T11:21:25.580Z,1.10
2024-04-10T11:23:53.556Z,0.80
2024-04-10T11:26:21.156Z,1.10
2024-04-10T11:28:57.269Z,1.17
2024-04-10T11:31:24.750Z,0.87
2024-04-10T11:33:54.812Z,1.10
2024-04-10T11:36:22.653Z,1.20
2024-04-10T11:38:50.879Z,1.20
2024-04-10T11:41:18.983Z,1.20
2024-04-10T11:43:46.857Z,1.27
2024-04-10T11:46:14.550Z,0.87
2024-04-10T11:48:42.294Z,1.20
2024-04-10T11:51:11.282Z,1.20
2024-04-10T11:53:40.516Z,1.00
2024-04-10T11:56:11.074Z,0.93
2024-04-10T11:58:41.549Z,1.40
2024-04-10T12:01:10.834Z,1.23
2024-04-10T12:03:38.834Z,1.13
2024-04-10T12:06:08.193Z,0.70
2024-04-10T12:08:37.675Z,1.47
2024-04-10T12:11:07.586Z,1.10
2024-04-10T12:13:35.392Z,0.97
2024-04-10T12:16:03.118Z,0.87
2024-04-10T12:18:31.023Z,0.90
2024-04-10T12:20:58.900Z,0.80
2024-04-10T12:23:27.403Z,1.03
2024-04-10T12:25:55.070Z,1.20
2024-04-10T12:28:22.761Z,0.83
2024-04-10T12:30:50.473Z,1.10
2024-04-10T12:33:18.299Z,1.10
2024-04-10T12:35:46.183Z,0.87
2024-04-10T12:38:14.046Z,1.00
2024-04-10T12:40:41.725Z,1.30
2024-04-10T12:43:09.540Z,1.00
2024-04-10T12:45:37.376Z,0.93
2024-04-10T12:48:05.485Z,0.93
2024-04-10T12:50:33.399Z,0.93
2024-04-10T12:53:01.257Z,0.83
2024-04-10T12:55:28.916Z,1.00
2024-04-10T12:57:56.592Z,0.80
2024-04-10T13:00:24.261Z,1.03
2024-04-10T13:02:53.776Z,1.00
2024-04-10T13:05:21.541Z,0.77
2024-04-10T13:07:49.383Z,1.07
2024-04-10T13:10:17.109Z,0.93
2024-04-10T13:12:44.923Z,1.00
2024-04-10T13:15:12.694Z,1.30
2024-04-10T13:17:40.742Z,0.77
2024-04-10T13:20:08.718Z,0.70
2024-04-10T13:22:36.436Z,0.70
2024-04-10T13:25:04.171Z,0.80
2024-04-10T13:27:31.883Z,2.17
2024-04-10T13:29:59.700Z,1.20
2024-04-10T13:32:29.937Z,1.10
2024-04-10T13:34:58.835Z,0.80
2024-04-10T13:37:33.818Z,1.17
2024-04-10T13:40:04.634Z,0.93
2024-04-10T13:42:32.285Z,1.10
2024-04-10T13:45:00.097Z,0.87
2024-04-10T13:47:27.931Z,1.00
2024-04-10T13:49:55.733Z,1.10
2024-04-10T13:52:23.416Z,0.87
2024-04-10T13:54:51.179Z,1.13
2024-04-10T13:57:19.798Z,1.00
2024-04-10T13:59:47.728Z,0.97
2024-04-10T14:02:15.423Z,1.17
2024-04-10T14:04:43.327Z,0.73
2024-04-10T14:07:11.317Z,0.80
2024-04-10T14:09:39.034Z,1.67
2024-04-10T14:12:06.957Z,1.33
2024-04-10T14:14:36.458Z,1.00
2024-04-10T14:17:15.102Z,1.13
2024-04-10T14:19:48.679Z,1.10
2024-04-10T14:22:16.437Z,0.80
2024-04-10T14:24:44.136Z,0.83
2024-04-10T14:27:11.895Z,0.90
2024-04-10T14:29:39.670Z,1.10
2024-04-10T14:32:07.507Z,1.00
2024-04-10T14:34:35.368Z,1.00
2024-04-10T14:37:03.144Z,1.00
2024-04-10T14:39:30.904Z,0.70
2024-04-10T14:41:58.697Z,1.20
2024-04-10T14:44:26.518Z,1.10
2024-04-10T14:46:54.169Z,1.10
2024-04-10T14:49:21.945Z,1.00
2024-04-10T14:51:49.606Z,0.80
2024-04-10T14:54:17.455Z,0.97
2024-04-10T14:56:45.314Z,0.90
2024-04-10T14:59:13.018Z,0.90
2024-04-10T15:01:40.752Z,0.93
2024-04-10T15:04:08.569Z,1.07
2024-04-10T15:06:36.518Z,1.00
2024-04-10T15:09:04.343Z,0.70
2024-04-10T15:11:32.129Z,0.90
2024-04-10T15:13:59.913Z,0.80
2024-04-10T15:16:28.061Z,1.03
2024-04-10T15:18:57.444Z,1.03
2024-04-10T15:21:27.112Z,1.03
2024-04-10T15:23:55.004Z,1.10
2024-04-10T15:28:08.463Z,0.80
2024-04-10T15:30:36.245Z,0.90
2024-04-10T15:33:04.135Z,0.87
2024-04-10T15:35:31.938Z,1.00
2024-04-10T15:37:59.575Z,0.93
2024-04-10T15:40:27.314Z,0.77
2024-04-10T15:42:56.143Z,0.90
2024-04-10T15:45:24.949Z,0.90
2024-04-10T15:47:52.754Z,1.00
2024-04-10T15:50:20.654Z,1.00
2024-04-10T15:52:51.156Z,0.93
2024-04-10T15:55:19.444Z,1.10
2024-04-10T15:57:47.108Z,1.20
2024-04-10T16:00:14.866Z,1.13
2024-04-10T16:02:42.579Z,1.00
2024-04-10T16:05:10.489Z,0.83
2024-04-10T16:07:38.277Z,0.97
2024-04-10T16:10:06.124Z,1.50
2024-04-10T16:12:33.817Z,0.80
2024-04-10T16:15:01.615Z,0.80
2024-04-10T16:17:29.374Z,1.00
2024-04-10T16:19:57.171Z,0.90
2024-04-10T16:22:24.850Z,0.90
2024-04-10T16:24:55.529Z,0.87
2024-04-10T16:27:23.354Z,0.70
2024-04-10T16:29:51.012Z,0.70
2024-04-10T16:32:18.837Z,0.83
2024-04-10T16:34:47.939Z,1.00
2024-04-10T16:37:15.784Z,0.97
2024-04-10T16:39:43.520Z,0.90
2024-04-10T16:42:11.295Z,0.90
2024-04-10T16:44:39.086Z,0.90
2024-04-10T16:47:06.913Z,1.07
2024-04-10T16:49:34.635Z,1.00
2024-04-10T16:52:02.421Z,1.20
2024-04-10T16:54:30.058Z,0.90
2024-04-10T16:56:57.869Z,0.87
2024-04-10T16:59:25.566Z,0.80
2024-04-10T17:01:54.348Z,1.10
2024-04-10T17:04:22.092Z,1.00
2024-04-10T17:06:49.991Z,1.20
2024-04-10T17:09:17.662Z,1.20
2024-04-10T17:11:45.505Z,1.10
2024-04-10T17:14:13.208Z,1.03
2024-04-10T17:16:41.171Z,0.93
2024-04-10T17:19:08.883Z,0.90
2024-04-10T17:21:36.728Z,0.93
2024-04-10T17:24:04.505Z,1.33
2024-04-10T17:26:32.403Z,1.00
2024-04-10T17:29:04.274Z,1.10
2024-04-10T17:31:39.787Z,1.00
2024-04-10T17:34:07.725Z,1.10
2024-04-10T17:36:35.637Z,0.97
2024-04-10T17:39:03.366Z,1.10
2024-04-10T17:41:31.296Z,1.00
2024-04-10T17:43:58.967Z,1.20
2024-04-10T17:46:26.688Z,1.00
2024-04-10T17:48:54.491Z,1.07
2024-04-10T17:51:22.408Z,1.00
2024-04-10T17:53:50.087Z,1.17
2024-04-10T17:56:18.474Z,1.10
2024-04-10T17:58:49.529Z,1.07
2024-04-10T18:01:17.770Z,1.20
2024-04-10T18:03:45.825Z,0.90
2024-04-10T18:06:14.218Z,1.10
2024-04-10T18:08:42.377Z,0.90
2024-04-10T18:11:10.838Z,0.80
2024-04-10T18:13:38.834Z,0.93
2024-04-10T18:16:07.168Z,0.80
2024-04-10T18:18:35.334Z,1.00
2024-04-10T18:21:04.454Z,1.10
2024-04-10T18:23:33.023Z,1.00
2024-04-10T18:26:01.827Z,1.50
2024-04-10T18:28:29.557Z,0.80
2024-04-10T18:31:05.083Z,1.27
2024-04-10T18:33:33.878Z,1.03
2024-04-10T18:36:02.607Z,1.13
2024-04-10T18:38:30.407Z,1.17
2024-04-10T18:41:04.955Z,1.00
2024-04-10T18:43:36.519Z,0.90
2024-04-10T18:46:07.326Z,1.10
2024-04-10T18:48:35.992Z,1.30
2024-04-10T18:51:15.122Z,1.10
2024-04-10T18:53:43.222Z,1.20
2024-04-10T18:56:10.967Z,1.00
2024-04-10T18:58:38.776Z,1.30
2024-04-10T19:01:06.721Z,1.00
2024-04-10T19:03:35.458Z,1.23
2024-04-10T19:06:07.867Z,1.10
2024-04-10T19:08:35.715Z,1.20
2024-04-10T19:11:03.401Z,0.80
2024-04-10T19:13:31.761Z,1.10
2024-04-10T19:15:59.576Z,1.10
2024-04-10T19:18:27.378Z,1.20
2024-04-10T19:20:55.425Z,1.07
2024-04-10T19:23:25.858Z,0.90
2024-04-10T19:25:54.728Z,1.20
2024-04-10T19:28:22.990Z,1.27
2024-04-10T19:30:50.701Z,1.83
2024-04-10T19:33:18.960Z,1.20
2024-04-10T19:35:46.809Z,1.30
2024-04-10T19:38:18.066Z,1.13
2024-04-10T19:40:46.350Z,1.23
2024-04-10T19:43:14.260Z,1.07
2024-04-10T19:45:42.097Z,1.40
2024-04-10T19:48:09.976Z,1.10
2024-04-10T19:50:37.895Z,1.23
2024-04-10T19:53:05.715Z,0.90
2024-04-10T19:55:33.450Z,1.53
2024-04-10T19:58:01.097Z,1.80
2024-04-10T20:00:28.821Z,1.27
2024-04-10T20:02:56.685Z,1.13
2024-04-10T20:05:24.618Z,1.20
2024-04-10T20:07:52.421Z,1.20
2024-04-10T20:10:20.189Z,1.43
2024-04-10T20:12:47.913Z,1.20
2024-04-10T20:15:15.657Z,1.27
2024-04-10T20:17:43.530Z,1.40
2024-04-10T20:20:11.439Z,1.60
2024-04-10T20:22:39.591Z,1.73
2024-04-10T20:25:07.442Z,1.30
2024-04-10T20:27:35.504Z,1.57
2024-04-10T20:30:06.700Z,1.50
2024-04-10T20:32:34.592Z,1.40
2024-04-10T20:35:02.422Z,1.57
2024-04-10T20:37:30.185Z,1.80
2024-04-10T20:39:57.887Z,1.60
2024-04-10T20:42:25.761Z,1.40
2024-04-10T20:44:54.042Z,1.57
2024-04-10T20:47:22.846Z,1.53
2024-04-10T20:49:54.408Z,1.50
2024-04-10T20:52:22.274Z,1.73
2024-04-10T20:54:58.318Z,1.60
2024-04-10T20:57:26.102Z,1.30
2024-04-10T20:59:53.943Z,1.43
2024-04-10T21:02:22.173Z,1.73
2024-04-10T21:04:50.098Z,1.60
2024-04-10T21:07:18.400Z,1.37
2024-04-10T21:09:46.190Z,1.43
2024-04-10T21:12:14.017Z,1.57
2024-04-10T21:14:41.741Z,1.50
2024-04-10T21:17:09.609Z,1.30
2024-04-10T21:19:37.374Z,1.87
2024-04-10T21:22:05.219Z,1.60
2024-04-10T21:24:32.979Z,2.00
2024-04-10T21:27:00.841Z,1.73
2024-04-10T21:29:28.567Z,1.53
2024-04-10T21:31:56.655Z,1.80
2024-04-10T21:34:24.532Z,1.73
2024-04-10T21:36:52.270Z,2.20
2024-04-10T21:39:19.924Z,1.57
2024-04-10T21:41:47.992Z,1.40
2024-04-10T21:44:15.667Z,2.03
2024-04-10T21:46:43.386Z,1.83
2024-04-10T21:49:11.284Z,1.70
2024-04-10T21:51:39.087Z,1.70
2024-04-10T21:54:06.878Z,1.87
2024-04-10T21:56:34.647Z,1.90
2024-04-10T21:59:02.364Z,1.90
2024-04-10T22:01:32.211Z,1.63
2024-04-10T22:04:01.955Z,1.90
2024-04-10T22:06:29.962Z,1.73
2024-04-10T22:08:57.940Z,1.87
2024-04-10T22:11:25.629Z,1.90
2024-04-10T22:13:53.792Z,2.10
2024-04-10T22:16:21.470Z,2.80
2024-04-10T22:18:49.513Z,1.97
2024-04-10T22:21:17.346Z,2.10
2024-04-10T22:23:45.382Z,1.90
2024-04-10T22:26:13.084Z,2.33
2024-04-10T22:28:40.799Z,1.90
2024-04-10T22:31:08.578Z,2.10
2024-04-10T22:33:36.504Z,2.27
2024-04-10T22:36:04.667Z,2.00
2024-04-10T22:38:32.564Z,2.10
2024-04-10T22:41:00.292Z,2.20
2024-04-10T22:43:27.993Z,1.70
2024-04-10T22:45:55.688Z,2.07
2024-04-10T22:48:23.751Z,2.00
2024-04-10T22:50:51.646Z,2.10
2024-04-10T22:53:19.594Z,1.77
2024-04-10T22:55:47.375Z,2.10
2024-04-10T22:58:15.628Z,1.93
2024-04-10T23:00:43.430Z,1.83
2024-04-10T23:03:11.317Z,1.70
2024-04-10T23:05:48.088Z,1.70
2024-04-10T23:10:50.942Z,2.30
2024-04-10T23:13:18.681Z,1.90
2024-04-10T23:15:46.509Z,2.10
2024-04-10T23:18:21.601Z,1.77
2024-04-10T23:21:00.065Z,1.77
2024-04-10T23:23:27.918Z,1.70
2024-04-10T23:25:55.655Z,1.60
2024-04-10T23:28:23.328Z,1.47
2024-04-10T23:30:51.200Z,1.50
2024-04-10T23:33:19.111Z,1.53
2024-04-10T23:35:47.565Z,1.70
2024-04-10T23:38:15.253Z,1.53
2024-04-10T23:40:43.632Z,1.83
2024-04-10T23:43:11.805Z,1.43
2024-04-10T23:45:39.811Z,1.40
2024-04-10T23:48:08.137Z,1.63
2024-04-10T23:50:36.278Z,1.43
2024-04-10T23:53:04.118Z,1.43
2024-04-10T23:55:31.877Z,1.20
2024-04-10T23:57:59.511Z,1.13
